»·PEaware :: WAT234 KSAN-L35

WAT234 :: KSAN-L35

FLIGHT INFORMATION

Flight Status: Arrived
Operator:
Walker Air Transport
More flights by this operator :: More flights under this callsign
Pilot: Eduardo Elias G. (24838)
Aircraft: SOCATA TBM-900
(TBM9)
More flights by this aircraft type
Origin: KSAN San Diego Intl-Lindbergh
United States
Destination: L35 Big Bear City
United States
More flights between these airports :: More routes between these airports
Route: +
File this flight plan on PilotEdge
Remarks:
Altitude:
(Current/Filed)
5,000ft
Speed:
(Current/Filed)
260kts
Departed: 25-Aug-20 09:14 PM
Arrived: 25-Aug-20 09:51 PM
Distance/Time
Traveled:
100nm/0:37
Distance/Time
To Go:
Arrived

Flight Plot

Page will automatically refresh every two minutes.


Map Options




Map Legend


Flown Route
Filed Route
Departure Airport
Arrival Airport
Navaid (VOR, NDB)
Fix

Horizontal Profiles

Position Reports

Time Latitude Longitude Heading Altitude Ground
Speed
25-Aug-20 21:04 32.733204 -117.177581 17 20ft 0kts
25-Aug-20 21:05 32.733204 -117.177581 17 20ft 0kts
25-Aug-20 21:06 32.733204 -117.177581 17 20ft 0kts
25-Aug-20 21:07 32.733204 -117.177581 17 20ft 0kts
25-Aug-20 21:08 32.733204 -117.177582 17 20ft 0kts
25-Aug-20 21:09 32.733327 -117.177779 259 20ft 3kts
25-Aug-20 21:10 32.732303 -117.179682 126 20ft 8kts
25-Aug-20 21:11 32.731208 -117.175738 140 20ft 1kts
25-Aug-20 21:12 32.730975 -117.175541 145 20ft 10kts
25-Aug-20 21:14 32.733283 -117.189073 285 411ft 112kts
25-Aug-20 21:15 32.742986 -117.232128 286 3047ft 123kts
25-Aug-20 21:16 32.752585 -117.273096 286 5633ft 130kts
25-Aug-20 21:17 32.728211 -117.297074 191 8141ft 139kts
25-Aug-20 21:18 32.685097 -117.290151 131 9573ft 212kts
25-Aug-20 21:19 32.643320 -117.229645 131 9510ft 234kts
25-Aug-20 21:20 32.600569 -117.166739 120 9499ft 237kts
25-Aug-20 21:21 32.635598 -117.104437 38 9510ft 241kts
25-Aug-20 21:22 32.689174 -117.050408 39 9509ft 241kts
25-Aug-20 21:23 32.741043 -116.997426 41 10750ft 239kts
25-Aug-20 21:24 32.796030 -116.941043 41 11519ft 265kts
25-Aug-20 21:25 32.856207 -116.879267 41 11511ft 280kts
25-Aug-20 21:26 32.916560 -116.815884 41 11510ft 281kts
25-Aug-20 21:27 32.977821 -116.753022 41 11510ft 281kts
25-Aug-20 21:28 33.038746 -116.690534 41 11510ft 281kts
25-Aug-20 21:28 33.094676 -116.648299 12 11518ft 281kts
25-Aug-20 21:30 33.189915 -116.622126 12 11508ft 281kts
25-Aug-20 21:31 33.270016 -116.599638 12 11508ft 281kts
25-Aug-20 21:31 33.337094 -116.580769 12 11509ft 281kts
25-Aug-20 21:33 33.431858 -116.554060 12 11509ft 281kts
25-Aug-20 21:33 33.498850 -116.535150 12 11682ft 275kts
25-Aug-20 21:35 33.588159 -116.509882 12 11959ft 275kts
25-Aug-20 21:35 33.650941 -116.492083 12 12013ft 278kts
25-Aug-20 21:36 33.727258 -116.470418 12 12013ft 279kts
25-Aug-20 21:38 33.817305 -116.448228 3 12011ft 278kts
25-Aug-20 21:38 33.881875 -116.455464 340 10780ft 279kts
25-Aug-20 21:39 33.957230 -116.481643 341 9275ft 278kts
25-Aug-20 21:40 34.026203 -116.504586 340 8999ft 225kts
25-Aug-20 21:41 34.082491 -116.523359 340 9007ft 198kts
25-Aug-20 21:42 34.137028 -116.541567 340 9010ft 189kts
25-Aug-20 21:43 34.189927 -116.559240 340 9012ft 187kts
25-Aug-20 21:44 34.239949 -116.582914 311 9019ft 179kts
25-Aug-20 21:45 34.255737 -116.640269 273 9022ft 173kts
25-Aug-20 21:46 34.263257 -116.701872 274 9047ft 173kts
25-Aug-20 21:47 34.265914 -116.763401 268 8972ft 141kts
25-Aug-20 21:48 34.264341 -116.804060 267 7955ft 114kts
25-Aug-20 21:49 34.263997 -116.843987 269 6881ft 113kts
25-Aug-20 21:50 34.263380 -116.858822 90 6755ft 5kts
25-Aug-20 21:51 34.263129 -116.852042 123 6755ft 11kts
25-Aug-20 21:52 34.263093 -116.851894 78 6755ft 0kts
25-Aug-20 21:53 34.263175 -116.851597 67 6755ft 8kts
25-Aug-20 21:54 34.263917 -116.846629 326 6755ft 5kts
25-Aug-20 21:55 34.255511 -116.877316 177 8128ft 142kts
25-Aug-20 21:56 34.245354 -116.820313 111 9721ft 206kts
25-Aug-20 21:57 34.225023 -116.757534 115 11362ft 221kts
25-Aug-20 21:58 34.199688 -116.679679 115 11037ft 261kts
25-Aug-20 21:59 34.165820 -116.583341 118 8352ft 302kts
25-Aug-20 22:00 34.156757 -116.503675 88 7753ft 204kts
25-Aug-20 22:01 34.157756 -116.419378 93 6267ft 251kts
25-Aug-20 22:02 34.154206 -116.327198 93 6204ft 266kts
25-Aug-20 22:03 34.150284 -116.228511 93 5604ft 280kts
25-Aug-20 22:04 34.142563 -116.127870 96 4849ft 278kts

Navigation Log

Ident Type
Flight plan parsing failed, navigation log unavailable